createdAt,value
2022-10-21T00:03:36.265Z,101093.72
2022-10-21T00:13:40.010Z,101092.59
2022-10-21T00:23:42.794Z,101094.72
2022-10-21T00:33:44.464Z,101076.44
2022-10-21T00:44:02.072Z,101073.75
2022-10-21T00:54:05.204Z,101054.38
2022-10-21T01:04:06.880Z,101056.03
2022-10-21T01:14:11.472Z,101040.78
2022-10-21T01:24:28.242Z,101040.47
2022-10-21T01:34:46.090Z,101041.06
2022-10-21T01:44:50.809Z,101029.69
2022-10-21T01:54:59.048Z,101005.63
2022-10-21T02:05:09.882Z,100999.03
2022-10-21T02:15:14.017Z,101000.38
2022-10-21T02:25:22.021Z,101025.94
2022-10-21T02:35:33.224Z,101035.00
2022-10-21T02:45:38.398Z,101036.81
2022-10-21T02:55:40.239Z,101043.03
2022-10-21T03:05:41.893Z,101017.28
2022-10-21T03:15:43.647Z,101020.25
2022-10-21T03:25:45.954Z,101024.06
2022-10-21T03:35:47.812Z,101011.03
2022-10-21T03:45:49.441Z,100991.22
2022-10-21T03:55:56.506Z,101013.31
2022-10-21T04:05:59.607Z,100981.03
2022-10-21T04:16:04.702Z,100981.78
2022-10-21T04:26:08.348Z,100974.66
2022-10-21T04:36:11.963Z,100961.94
2022-10-21T04:46:17.652Z,100948.78
2022-10-21T04:56:19.277Z,100938.31
2022-10-21T05:06:21.863Z,100926.63
2022-10-21T05:16:24.116Z,100949.59
2022-10-21T05:26:25.783Z,100943.25
2022-10-21T05:36:29.623Z,100939.06
2022-10-21T05:46:31.520Z,100948.97
2022-10-21T05:56:34.221Z,100953.25
2022-10-21T06:06:35.853Z,100949.31
2022-10-21T06:16:37.632Z,101001.47
2022-10-21T06:26:40.086Z,100988.13
2022-10-21T06:36:42.034Z,100990.91
2022-10-21T06:46:43.853Z,100999.66
2022-10-21T06:56:45.483Z,100992.63
2022-10-21T07:06:47.433Z,100966.78
2022-10-21T07:16:49.239Z,100969.50
2022-10-21T07:26:52.171Z,100976.91
2022-10-21T07:36:54.903Z,100993.25
2022-10-21T07:46:56.916Z,100988.34
2022-10-21T07:56:59.665Z,100969.41
2022-10-21T08:07:01.433Z,100959.41
2022-10-21T08:17:03.274Z,100932.22
2022-10-21T08:27:06.367Z,100920.38
2022-10-21T08:37:10.739Z,100918.63
2022-10-21T08:47:18.611Z,100902.81
2022-10-21T08:57:20.695Z,100881.88
2022-10-21T09:07:23.326Z,100870.84
2022-10-21T09:17:36.339Z,100868.38
2022-10-21T09:27:55.144Z,100853.00
2022-10-21T09:38:20.837Z,100851.38
2022-10-21T09:49:00.894Z,100820.78
2022-10-21T09:59:09.685Z,100815.00
2022-10-21T10:09:17.261Z,100795.53
2022-10-21T10:19:22.380Z,100786.13
2022-10-21T10:29:26.260Z,100771.50
2022-10-21T10:39:32.266Z,100766.03
2022-10-21T10:49:41.766Z,100733.31
2022-10-21T10:59:56.962Z,100723.38
2022-10-21T11:10:08.627Z,100691.41
2022-10-21T11:20:29.200Z,100704.66
2022-10-21T11:30:41.551Z,100680.84
2022-10-21T11:40:49.060Z,100668.94
2022-10-21T11:51:18.658Z,100641.31
2022-10-21T12:01:34.102Z,100635.22
2022-10-21T12:12:19.594Z,100621.59
2022-10-21T12:22:24.446Z,100614.25
2022-10-21T12:32:35.967Z,100606.34
2022-10-21T12:42:45.728Z,100589.72
2022-10-21T12:53:13.997Z,100591.81
2022-10-21T13:03:18.655Z,100590.09
2022-10-21T13:13:43.595Z,100573.84
2022-10-21T13:23:49.776Z,100560.03
2022-10-21T13:33:54.107Z,100540.09
2022-10-21T13:44:00.059Z,100534.06
2022-10-21T13:54:14.334Z,100532.31
2022-10-21T14:04:21.148Z,100526.09
2022-10-21T14:14:25.632Z,100512.28
2022-10-21T14:24:49.426Z,100502.03
2022-10-21T14:35:14.317Z,100487.22
2022-10-21T14:45:24.669Z,100496.69
2022-10-21T14:55:30.245Z,100476.34
2022-10-21T15:05:39.679Z,100484.41
2022-10-21T15:15:52.431Z,100479.66
2022-10-21T15:26:00.656Z,100452.25
2022-10-21T15:36:10.519Z,100460.13
2022-10-21T15:46:12.417Z,100468.06
2022-10-21T15:56:18.829Z,100456.06
2022-10-21T16:06:22.107Z,100446.59
2022-10-21T16:16:25.921Z,100465.53
2022-10-21T16:26:28.941Z,100481.09
2022-10-21T16:36:32.104Z,100487.97
2022-10-21T16:46:37.395Z,100491.44
2022-10-21T16:56:39.409Z,100465.63
2022-10-21T17:06:41.399Z,100461.31
2022-10-21T17:16:45.650Z,100462.16
2022-10-21T17:26:47.423Z,100469.88
2022-10-21T17:36:51.782Z,100472.41
2022-10-21T17:46:55.025Z,100459.47
2022-10-21T17:56:57.780Z,100466.34
2022-10-21T18:06:59.866Z,100458.59
2022-10-21T18:17:02.190Z,100455.16
2022-10-21T18:27:06.351Z,100446.53
2022-10-21T18:37:08.828Z,100441.34
2022-10-21T18:47:11.757Z,100433.59
2022-10-21T18:57:13.896Z,100404.31
2022-10-21T19:07:17.197Z,100403.47
2022-10-21T19:17:20.488Z,100400.75
2022-10-21T19:27:23.504Z,100390.34
2022-10-21T19:37:25.847Z,100384.31
2022-10-21T19:47:30.959Z,100390.31
2022-10-21T19:57:33.719Z,100383.44
2022-10-21T20:07:37.150Z,100377.41
2022-10-21T20:17:39.587Z,100367.94
2022-10-21T20:27:41.743Z,100366.25
2022-10-21T20:37:43.760Z,100385.06
2022-10-21T20:47:45.352Z,100382.66
2022-10-21T20:57:47.520Z,100382.00
2022-10-21T21:07:49.266Z,100382.13
2022-10-21T21:17:51.178Z,100377.88
2022-10-21T21:27:53.083Z,100356.41
2022-10-21T21:37:54.750Z,100366.72
2022-10-21T21:47:57.701Z,100344.38
2022-10-21T21:57:59.882Z,100328.88
2022-10-21T22:08:02.372Z,100327.19
2022-10-21T22:18:06.614Z,100334.06
2022-10-21T22:28:08.230Z,100343.53
2022-10-21T22:38:10.116Z,100342.66
2022-10-21T22:48:11.637Z,100328.91
2022-10-21T22:58:21.723Z,100314.25
2022-10-21T23:08:25.845Z,100326.31
2022-10-21T23:18:27.384Z,100316.00
2022-10-21T23:28:30.211Z,100310.84
2022-10-21T23:38:31.859Z,100317.75
2022-10-21T23:48:33.602Z,100297.97
2022-10-21T23:58:35.215Z,100305.72
